KMVN/MVN METAR and TAF weather

Enter ICAO airport designator
Station Type Date Time Source
KMVN METAR 2018/12/18 19:56 UTC NOAA

KMVN 181956Z AUTO VRB03KT 10SM CLR 09/00 A3015 RMK AO2 SLP212 T00940000


Station Type Date Time Source
KMVN Decoded METAR 2018/12/18 19:56 UTC NOAA

Mount Vernon, Mount Vernon Airport, IL, United States (KMVN) 38-19N 088-52W
Dec 18, 2018 - 02:56 PM EST / 2018.12.18 1956 UTC
Wind: Variable at 3 MPH (3 KT):0
Visibility: 10 mile(s):0
Sky conditions: clear
Temperature: 48.9 F (9.4 C)
Dew Point: 32.0 F (0.0 C)
Relative Humidity: 51%
Pressure (altimeter): 30.15 in. Hg (1020 hPa)
ob: KMVN 181956Z AUTO VRB03KT 10SM CLR 09/00 A3015 RMK AO2 SLP212 T00940000
cycle: 20

Station Type Date Time Source
KMVN TAF UTC NOAA

Error!


Example: see airport list